createdAt,value
2023-04-01T00:00:31.396Z,990.44
2023-04-01T00:01:31.390Z,990.40
2023-04-01T00:02:31.482Z,990.40
2023-04-01T00:03:31.532Z,990.41
2023-04-01T00:04:31.520Z,990.43
2023-04-01T00:05:31.563Z,990.43
2023-04-01T00:06:31.321Z,990.43
2023-04-01T00:07:31.318Z,990.44
2023-04-01T00:08:31.309Z,990.44
2023-04-01T00:09:31.330Z,990.41
2023-04-01T00:10:31.288Z,990.43
2023-04-01T00:11:31.294Z,990.42
2023-04-01T00:12:31.240Z,990.42
2023-04-01T00:13:31.258Z,990.43
2023-04-01T00:14:31.273Z,990.42
2023-04-01T00:15:31.538Z,990.46
2023-04-01T00:16:31.265Z,990.42
2023-04-01T00:17:31.220Z,990.44
2023-04-01T00:18:31.192Z,990.43
2023-04-01T00:19:31.217Z,990.47
2023-04-01T00:20:31.162Z,990.44
2023-04-01T00:21:31.167Z,990.48
2023-04-01T00:22:31.153Z,990.45
2023-04-01T00:23:31.148Z,990.46
2023-04-01T00:24:31.148Z,990.44
2023-04-01T00:25:31.537Z,990.46
2023-04-01T00:26:31.119Z,990.43
2023-04-01T00:27:31.100Z,990.46
2023-04-01T00:28:31.086Z,990.41
2023-04-01T00:29:31.090Z,990.45
2023-04-01T00:30:31.052Z,990.41
2023-04-01T00:31:31.111Z,990.48
2023-04-01T00:32:31.049Z,990.43
2023-04-01T00:33:31.029Z,990.45
2023-04-01T00:34:31.052Z,990.45
2023-04-01T00:35:31.270Z,990.43
2023-04-01T00:36:30.991Z,990.43
2023-04-01T00:37:30.987Z,990.46
2023-04-01T00:38:30.970Z,990.42
2023-04-01T00:39:31.003Z,990.40
2023-04-01T00:40:30.947Z,990.39
2023-04-01T00:41:30.945Z,990.40
2023-04-01T00:42:30.918Z,990.39
2023-04-01T00:43:30.902Z,990.43
2023-04-01T00:44:30.961Z,990.41
2023-04-01T00:45:31.183Z,990.40
2023-04-01T00:46:30.878Z,990.42
2023-04-01T00:47:30.927Z,990.40
2023-04-01T00:48:30.873Z,990.44
2023-04-01T00:49:30.860Z,990.41
2023-04-01T00:50:30.872Z,990.42
2023-04-01T00:51:30.831Z,990.41
2023-04-01T00:52:30.812Z,990.43
2023-04-01T00:53:30.811Z,990.40
2023-04-01T00:54:30.792Z,990.41
2023-04-01T00:55:31.028Z,990.39
2023-04-01T00:56:30.772Z,990.40
2023-04-01T00:57:30.816Z,990.41
2023-04-01T00:58:30.793Z,990.44
2023-04-01T01:01:49.675Z,990.46
2023-04-01T01:02:49.642Z,990.40
2023-04-01T01:03:49.536Z,990.42
2023-04-01T01:04:49.533Z,990.44
2023-04-01T01:05:49.999Z,990.42
2023-04-01T01:06:49.489Z,990.40
2023-04-01T01:07:49.533Z,990.44
2023-04-01T01:08:49.479Z,990.42
2023-04-01T01:09:49.484Z,990.42
2023-04-01T01:10:49.448Z,990.40
2023-04-01T01:11:49.449Z,990.44
2023-04-01T01:12:49.475Z,990.42
2023-04-01T01:13:49.434Z,990.44
2023-04-01T01:14:49.393Z,990.39
2023-04-01T01:15:49.405Z,990.39
2023-04-01T01:16:49.418Z,990.41
2023-04-01T01:17:49.450Z,990.41
2023-04-01T01:18:49.355Z,990.43
2023-04-01T01:19:49.499Z,990.41
2023-04-01T01:20:49.335Z,990.45
2023-04-01T01:21:49.339Z,990.41
2023-04-01T01:22:49.344Z,990.42
2023-04-01T01:23:49.305Z,990.42
2023-04-01T01:24:49.297Z,990.46
2023-04-01T01:25:49.296Z,990.44
2023-04-01T01:26:49.270Z,990.41
2023-04-01T01:27:49.301Z,990.42
2023-04-01T01:28:49.261Z,990.45
2023-04-01T01:29:49.246Z,990.43
2023-04-01T01:30:49.246Z,990.42
2023-04-01T01:31:49.233Z,990.47
2023-04-01T01:32:49.281Z,990.47
2023-04-01T01:33:49.190Z,990.44
2023-04-01T01:34:49.166Z,990.46
2023-04-01T01:35:49.205Z,990.45
2023-04-01T01:36:49.123Z,990.44
2023-04-01T01:37:49.163Z,990.43
2023-04-01T01:38:49.119Z,990.43
2023-04-01T01:39:49.124Z,990.47
2023-04-01T01:40:49.102Z,990.47
2023-04-01T01:41:49.090Z,990.41
2023-04-01T01:42:49.132Z,990.47
2023-04-01T01:43:49.069Z,990.43
2023-04-01T01:44:49.073Z,990.44
2023-04-01T01:45:49.067Z,990.42
2023-04-01T01:46:49.090Z,990.40
2023-04-01T01:47:49.082Z,990.43
2023-04-01T01:48:49.002Z,990.41
2023-04-01T01:49:48.999Z,990.41
2023-04-01T01:50:48.976Z,990.43
2023-04-01T01:51:48.971Z,990.44
2023-04-01T01:52:48.997Z,990.42
2023-04-01T01:53:48.956Z,990.41
2023-04-01T01:54:48.930Z,990.46
2023-04-01T01:55:48.942Z,990.47
2023-04-01T01:56:48.938Z,990.46
2023-04-01T01:57:48.939Z,990.45
2023-04-01T01:58:48.889Z,990.46
2023-04-01T01:59:48.887Z,990.47
2023-04-01T02:00:48.883Z,990.44
2023-04-01T02:01:48.881Z,990.45
2023-04-01T02:02:48.937Z,990.48
2023-04-01T02:03:48.858Z,990.48
2023-04-01T02:04:48.893Z,990.46
2023-04-01T02:05:48.806Z,990.46
2023-04-01T02:06:48.802Z,990.47
2023-04-01T02:07:48.825Z,990.47
2023-04-01T02:08:48.776Z,990.46
2023-04-01T02:09:48.789Z,990.49
2023-04-01T02:10:48.747Z,990.48
2023-04-01T02:11:48.744Z,990.50
2023-04-01T02:12:48.768Z,990.47
2023-04-01T02:13:48.725Z,990.49
2023-04-01T02:14:48.703Z,990.45
2023-04-01T02:15:48.753Z,990.50
2023-04-01T02:16:48.678Z,990.51
2023-04-01T02:17:48.747Z,990.47
2023-04-01T02:18:48.656Z,990.49
2023-04-01T02:19:48.657Z,990.47
2023-04-01T02:20:48.635Z,990.45
2023-04-01T02:21:48.624Z,990.50
2023-04-01T02:22:48.661Z,990.53
2023-04-01T02:23:48.602Z,990.51
2023-04-01T02:24:48.586Z,990.48
2023-04-01T02:25:48.570Z,990.50
2023-04-01T02:26:48.570Z,990.54
2023-04-01T02:27:48.603Z,990.53
2023-04-01T02:28:48.541Z,990.49
2023-04-01T02:29:48.531Z,990.56
2023-04-01T02:30:48.544Z,990.57
2023-04-01T02:31:48.594Z,990.59
2023-04-01T02:32:48.620Z,990.57
2023-04-01T02:33:48.478Z,990.56
2023-04-01T02:34:48.477Z,990.57
2023-04-01T02:35:48.448Z,990.46
2023-04-01T02:36:48.469Z,990.53
2023-04-01T02:37:48.491Z,990.57
2023-04-01T02:38:48.439Z,990.60
2023-04-01T02:39:48.422Z,990.58
2023-04-01T02:40:48.428Z,990.55
2023-04-01T02:41:48.389Z,990.58
2023-04-01T02:42:48.436Z,990.60
2023-04-01T02:43:48.371Z,990.60
2023-04-01T02:44:48.363Z,990.61
2023-04-01T02:45:48.364Z,990.60
2023-04-01T02:46:48.375Z,990.61
2023-04-01T02:47:48.424Z,990.60
2023-04-01T02:48:48.377Z,990.65
2023-04-01T02:49:48.321Z,990.68
2023-04-01T02:50:48.301Z,990.68
2023-04-01T02:51:48.295Z,990.67
2023-04-01T02:52:48.327Z,990.70
2023-04-01T02:53:48.288Z,990.72
2023-04-01T02:54:48.254Z,990.73
2023-04-01T02:55:48.242Z,990.75
2023-04-01T02:56:48.249Z,990.74
2023-04-01T02:57:48.266Z,990.75
2023-04-01T02:58:48.211Z,990.78
2023-04-01T02:59:48.246Z,990.68
2023-04-01T03:00:48.246Z,990.79
2023-04-01T03:01:48.170Z,990.76
2023-04-01T03:02:48.255Z,990.78
2023-04-01T03:03:48.170Z,990.75
2023-04-01T03:04:48.150Z,990.74
2023-04-01T03:05:48.123Z,990.81
2023-04-01T03:06:48.120Z,990.80
2023-04-01T03:07:48.168Z,990.77
2023-04-01T03:08:48.087Z,990.76
2023-04-01T03:09:48.073Z,990.78
2023-04-01T03:10:48.064Z,990.82
2023-04-01T03:11:48.053Z,990.80
2023-04-01T03:12:48.096Z,990.80
2023-04-01T03:13:48.052Z,990.79
2023-04-01T03:14:48.041Z,990.78
2023-04-01T03:15:48.005Z,990.82
2023-04-01T03:16:48.043Z,990.83
2023-04-01T03:17:48.062Z,990.84
2023-04-01T03:18:47.981Z,990.82
2023-04-01T03:19:47.971Z,990.81
2023-04-01T03:20:47.963Z,990.81
2023-04-01T03:21:47.932Z,990.84
2023-04-01T03:22:47.984Z,990.86
2023-04-01T03:23:47.947Z,990.89
2023-04-01T03:24:47.906Z,990.86
2023-04-01T03:25:47.899Z,990.87
2023-04-01T03:26:47.891Z,990.87
2023-04-01T03:27:47.908Z,990.89
2023-04-01T03:28:47.858Z,990.85
2023-04-01T03:29:47.895Z,990.85
2023-04-01T03:30:47.857Z,990.88
2023-04-01T03:31:47.821Z,990.90
2023-04-01T03:32:47.953Z,990.92
2023-04-01T03:33:47.807Z,990.86
2023-04-01T03:34:47.776Z,990.92
2023-04-01T03:35:47.773Z,990.93
2023-04-01T03:36:47.760Z,990.91
2023-04-01T03:37:47.804Z,990.92
2023-04-01T03:38:47.750Z,990.93
2023-04-01T03:39:47.737Z,990.91
2023-04-01T03:40:47.747Z,990.91
2023-04-01T03:41:47.720Z,990.92
2023-04-01T03:42:47.781Z,990.92
2023-04-01T03:43:47.687Z,990.95
2023-04-01T03:44:47.676Z,990.94
2023-04-01T03:45:47.868Z,990.93
2023-04-01T03:46:47.651Z,990.96
2023-04-01T03:47:47.731Z,990.96
2023-04-01T03:48:47.663Z,990.97
2023-04-01T03:49:47.655Z,991.01
2023-04-01T03:50:47.612Z,991.02
2023-04-01T03:51:47.607Z,990.95
2023-04-01T03:52:47.637Z,990.96
2023-04-01T03:53:47.576Z,990.99
2023-04-01T03:54:47.581Z,991.01
2023-04-01T03:55:47.553Z,991.02
2023-04-01T03:56:47.559Z,991.06
2023-04-01T03:57:47.574Z,991.15
2023-04-01T03:58:47.524Z,991.10
2023-04-01T03:59:47.506Z,991.13
2023-04-01T04:00:47.499Z,991.12
2023-04-01T04:01:47.471Z,991.15
2023-04-01T04:02:47.594Z,991.22
2023-04-01T04:03:47.614Z,991.16
2023-04-01T04:04:47.531Z,991.18
2023-04-01T04:05:47.433Z,991.16
2023-04-01T04:06:47.464Z,991.20
2023-04-01T04:07:47.424Z,991.17
2023-04-01T04:08:47.462Z,991.20
2023-04-01T04:09:47.407Z,991.23
2023-04-01T04:10:47.493Z,991.21
2023-04-01T04:11:47.399Z,991.23
2023-04-01T04:12:47.396Z,991.23
2023-04-01T04:13:47.391Z,991.20
2023-04-01T04:14:47.339Z,991.23
2023-04-01T04:15:47.379Z,991.28
2023-04-01T04:16:47.323Z,991.25
2023-04-01T04:17:47.317Z,991.27
2023-04-01T04:18:47.341Z,991.26
2023-04-01T04:19:47.293Z,991.29
2023-04-01T04:20:47.277Z,991.33
2023-04-01T04:21:47.274Z,991.34
2023-04-01T04:22:47.263Z,991.34
2023-04-01T04:23:47.287Z,991.34
2023-04-01T04:24:47.223Z,991.33
2023-04-01T04:25:47.209Z,991.31
2023-04-01T04:26:47.222Z,991.34
2023-04-01T04:27:47.192Z,991.37
2023-04-01T04:28:47.212Z,991.34
2023-04-01T04:29:47.172Z,991.37
2023-04-01T04:30:47.241Z,991.38
2023-04-01T04:31:47.207Z,991.39
2023-04-01T04:32:47.188Z,991.36
2023-04-01T04:33:47.160Z,991.35
2023-04-01T04:34:47.122Z,991.36
2023-04-01T04:35:47.187Z,991.39
2023-04-01T04:36:47.110Z,991.37
2023-04-01T04:37:47.074Z,991.40
2023-04-01T04:38:47.135Z,991.40
2023-04-01T04:39:47.058Z,991.36
2023-04-01T04:40:47.045Z,991.37
2023-04-01T04:41:47.060Z,991.40
2023-04-01T04:42:47.020Z,991.40
2023-04-01T04:43:47.144Z,991.38
2023-04-01T04:44:47.019Z,991.38
2023-04-01T04:45:46.989Z,991.42
2023-04-01T04:46:47.010Z,991.41
2023-04-01T04:47:46.983Z,991.42
2023-04-01T04:48:46.999Z,991.40
2023-04-01T04:49:46.935Z,991.42
2023-04-01T04:50:46.935Z,991.41
2023-04-01T04:51:46.910Z,991.45
2023-04-01T04:52:46.918Z,991.43
2023-04-01T04:53:46.949Z,991.45
2023-04-01T04:54:46.883Z,991.45
2023-04-01T04:55:46.865Z,991.47
2023-04-01T04:56:46.903Z,991.45
2023-04-01T04:57:46.855Z,991.52
2023-04-01T04:58:46.877Z,991.53
2023-04-01T04:59:46.817Z,991.53
2023-04-01T05:00:46.815Z,991.53
2023-04-01T05:01:46.943Z,991.49
2023-04-01T05:02:46.869Z,991.53
2023-04-01T05:03:46.875Z,991.56
2023-04-01T05:04:46.792Z,991.56
2023-04-01T05:05:46.755Z,991.55
2023-04-01T05:06:46.767Z,991.61
2023-04-01T05:07:46.732Z,991.61
2023-04-01T05:08:46.765Z,991.63
2023-04-01T05:09:46.758Z,991.64
2023-04-01T05:10:46.695Z,991.63
2023-04-01T05:11:46.686Z,991.65
2023-04-01T05:12:46.678Z,991.65
2023-04-01T05:13:46.711Z,991.65
2023-04-01T05:14:46.660Z,991.60
2023-04-01T05:15:46.638Z,991.59
2023-04-01T05:16:46.679Z,991.61
2023-04-01T05:17:46.634Z,991.65
2023-04-01T05:18:46.663Z,991.67
2023-04-01T05:19:46.598Z,991.62
2023-04-01T05:20:46.584Z,991.66
2023-04-01T05:21:46.603Z,991.66
2023-04-01T05:22:46.566Z,991.65
2023-04-01T05:23:46.587Z,991.68
2023-04-01T05:24:46.543Z,991.66
2023-04-01T05:25:46.525Z,991.67
2023-04-01T05:26:46.531Z,991.66
2023-04-01T05:27:46.492Z,991.71
2023-04-01T05:28:46.546Z,991.70
2023-04-01T05:29:46.469Z,991.72
2023-04-01T05:30:46.512Z,991.74
2023-04-01T05:31:46.484Z,991.72
2023-04-01T05:32:46.506Z,991.79
2023-04-01T05:33:46.496Z,991.72
2023-04-01T05:34:46.434Z,991.73
2023-04-01T05:35:46.450Z,991.72
2023-04-01T05:36:46.406Z,991.72
2023-04-01T05:37:46.404Z,991.72
2023-04-01T05:38:46.437Z,991.72
2023-04-01T05:39:46.360Z,991.73
2023-04-01T05:40:46.365Z,991.71
2023-04-01T05:41:46.344Z,991.72
2023-04-01T05:42:46.352Z,991.76
2023-04-01T05:43:46.370Z,991.76
2023-04-01T05:44:46.299Z,991.73
2023-04-01T05:45:46.325Z,991.77
2023-04-01T05:46:46.310Z,991.77
2023-04-01T05:47:46.325Z,991.80
2023-04-01T05:48:46.315Z,991.80
2023-04-01T05:49:46.253Z,991.74
2023-04-01T05:50:46.245Z,991.71
2023-04-01T05:51:46.240Z,991.77
2023-04-01T05:52:46.218Z,991.79
2023-04-01T05:53:46.253Z,991.82
2023-04-01T05:54:46.191Z,991.84
2023-04-01T05:55:46.167Z,991.84
2023-04-01T05:56:47.619Z,991.83
2023-04-01T05:57:46.169Z,991.80
2023-04-01T05:58:46.191Z,991.84
2023-04-01T05:59:46.131Z,991.85
2023-04-01T06:00:46.823Z,991.88
2023-04-01T06:01:46.122Z,991.83
2023-04-01T06:02:46.160Z,991.86
2023-04-01T06:03:46.302Z,991.86
2023-04-01T06:04:46.188Z,991.90
2023-04-01T06:05:46.095Z,991.87
2023-04-01T06:06:46.063Z,991.90
2023-04-01T06:07:46.042Z,991.87
2023-04-01T06:08:46.134Z,991.88
2023-04-01T06:09:46.021Z,991.88
2023-04-01T06:10:46.049Z,991.92
2023-04-01T06:11:46.025Z,991.91
2023-04-01T06:12:45.987Z,991.92
2023-04-01T06:13:46.046Z,991.95
2023-04-01T06:14:45.959Z,991.94
2023-04-01T06:15:45.978Z,992.00
2023-04-01T06:16:45.971Z,991.96
2023-04-01T06:17:46.855Z,992.00
2023-04-01T06:18:46.010Z,992.02
2023-04-01T06:19:45.905Z,992.03
2023-04-01T06:20:45.924Z,992.04
2023-04-01T06:21:45.896Z,992.07
2023-04-01T06:22:45.885Z,992.05
2023-04-01T06:23:45.915Z,992.05
2023-04-01T06:24:45.842Z,992.05
2023-04-01T06:25:45.839Z,992.07
2023-04-01T06:26:45.827Z,992.06
2023-04-01T06:27:45.810Z,992.07
2023-04-01T06:28:45.870Z,992.06
2023-04-01T06:29:45.800Z,992.07
2023-04-01T06:30:45.772Z,992.06
2023-04-01T06:31:45.770Z,992.11
2023-04-01T06:32:45.836Z,992.12
2023-04-01T06:33:45.830Z,992.12
2023-04-01T06:34:45.762Z,992.12
2023-04-01T06:35:45.782Z,992.10
2023-04-01T06:36:45.744Z,992.12
2023-04-01T06:37:45.770Z,992.07
2023-04-01T06:38:45.897Z,992.12
2023-04-01T06:39:45.702Z,992.07
2023-04-01T06:40:45.677Z,992.08
2023-04-01T06:41:45.678Z,992.08
2023-04-01T06:42:45.660Z,992.09
2023-04-01T06:43:45.707Z,992.13
2023-04-01T06:44:45.656Z,992.11
2023-04-01T06:45:45.652Z,992.11
2023-04-01T06:46:45.615Z,992.11
2023-04-01T06:47:45.810Z,992.13
2023-04-01T06:48:45.665Z,992.11
2023-04-01T06:49:45.578Z,992.15
2023-04-01T06:50:45.568Z,992.16
2023-04-01T06:51:45.552Z,992.19
2023-04-01T06:52:45.525Z,992.18
2023-04-01T06:53:45.655Z,992.17
2023-04-01T06:54:45.509Z,992.17
2023-04-01T06:55:45.490Z,992.18
2023-04-01T06:56:45.491Z,992.19
2023-04-01T06:57:45.488Z,992.20
2023-04-01T06:58:45.525Z,992.22
2023-04-01T06:59:45.450Z,992.20
2023-04-01T07:00:45.456Z,992.20
2023-04-01T07:01:45.511Z,992.22
2023-04-01T07:02:45.449Z,992.28
2023-04-01T07:03:45.423Z,992.22
2023-04-01T07:04:45.488Z,992.22
2023-04-01T07:05:45.441Z,992.23
2023-04-01T07:06:45.366Z,992.20
2023-04-01T07:07:45.378Z,992.22
2023-04-01T07:08:45.348Z,992.18
2023-04-01T07:09:45.399Z,992.17
2023-04-01T07:10:45.324Z,992.17
2023-04-01T07:11:45.602Z,992.17
2023-04-01T07:12:45.315Z,992.24
2023-04-01T07:13:45.295Z,992.24
2023-04-01T07:14:45.318Z,992.20
2023-04-01T07:15:45.275Z,992.18
2023-04-01T07:16:45.250Z,992.19
2023-04-01T07:17:45.284Z,992.17
2023-04-01T07:18:45.232Z,992.21
2023-04-01T07:19:45.282Z,992.22
2023-04-01T07:20:45.219Z,992.23
2023-04-01T07:21:45.202Z,992.22
2023-04-01T07:22:45.199Z,992.23
2023-04-01T07:23:45.181Z,992.27
2023-04-01T07:24:45.203Z,992.27
2023-04-01T07:25:45.153Z,992.23
2023-04-01T07:26:45.632Z,992.22
2023-04-01T07:27:45.192Z,992.23
2023-04-01T07:28:45.133Z,992.22
2023-04-01T07:29:45.149Z,992.25
2023-04-01T07:30:45.139Z,992.26
2023-04-01T07:31:45.076Z,992.29
2023-04-01T07:32:45.091Z,992.29
2023-04-01T07:33:45.069Z,992.26
2023-04-01T07:34:45.099Z,992.30
2023-04-01T07:35:45.064Z,992.29
2023-04-01T07:36:45.039Z,992.30
2023-04-01T07:37:45.018Z,992.32
2023-04-01T07:38:45.018Z,992.32
2023-04-01T07:39:45.035Z,992.33
2023-04-01T07:40:44.983Z,992.36
2023-04-01T07:41:44.975Z,992.36
2023-04-01T07:42:44.955Z,992.34
2023-04-01T07:43:44.971Z,992.37
2023-04-01T07:44:44.983Z,992.39
2023-04-01T07:45:44.962Z,992.39
2023-04-01T07:46:44.991Z,992.39
2023-04-01T07:47:44.919Z,992.41
2023-04-01T07:48:44.913Z,992.43
2023-04-01T07:49:44.910Z,992.44
2023-04-01T07:50:45.968Z,992.41
2023-04-01T07:51:44.852Z,992.45
2023-04-01T07:52:44.847Z,992.50
2023-04-01T07:53:44.833Z,992.44
2023-04-01T07:54:44.874Z,992.50
2023-04-01T07:55:44.805Z,992.50
2023-04-01T07:56:44.884Z,992.49
2023-04-01T07:57:44.800Z,992.49
2023-04-01T07:58:44.766Z,992.54
2023-04-01T07:59:44.799Z,992.52
2023-04-01T08:00:44.759Z,992.58
2023-04-01T08:01:44.747Z,992.57
2023-04-01T08:02:44.790Z,992.57
2023-04-01T08:03:44.827Z,992.54
2023-04-01T08:04:44.771Z,992.55
2023-04-01T08:05:45.662Z,992.58
2023-04-01T08:06:44.696Z,992.58
2023-04-01T08:07:44.675Z,992.57
2023-04-01T08:08:44.672Z,992.62
2023-04-01T08:09:44.680Z,992.63
2023-04-01T08:10:44.612Z,992.61
2023-04-01T08:11:44.602Z,992.58
2023-04-01T08:12:44.600Z,992.61
2023-04-01T08:13:44.603Z,992.58
2023-04-01T08:14:44.643Z,992.59
2023-04-01T08:15:44.601Z,992.61
2023-04-01T08:16:44.630Z,992.59
2023-04-01T08:17:44.543Z,992.63
2023-04-01T08:18:44.538Z,992.58
2023-04-01T08:19:44.562Z,992.61
2023-04-01T08:20:44.525Z,992.65
2023-04-01T08:21:44.507Z,992.62
2023-04-01T08:22:44.516Z,992.62
2023-04-01T08:23:44.500Z,992.65
2023-04-01T08:24:47.536Z,992.65
2023-04-01T08:25:44.472Z,992.65
2023-04-01T08:26:44.447Z,992.61
2023-04-01T08:27:44.440Z,992.63
2023-04-01T08:28:44.417Z,992.62
2023-04-01T08:29:44.464Z,992.65
2023-04-01T08:30:44.393Z,992.66
2023-04-01T08:31:44.402Z,992.69
2023-04-01T08:32:44.439Z,992.65
2023-04-01T08:33:44.359Z,992.63
2023-04-01T08:34:44.396Z,992.61
2023-04-01T08:35:44.549Z,992.66
2023-04-01T08:36:44.342Z,992.59
2023-04-01T08:37:44.302Z,992.60
2023-04-01T08:38:44.292Z,992.65
2023-04-01T08:39:44.333Z,992.64
2023-04-01T08:40:44.275Z,992.68
2023-04-01T08:41:44.281Z,992.69
2023-04-01T08:42:44.247Z,992.69
2023-04-01T08:43:44.252Z,992.69
2023-04-01T08:44:44.264Z,992.71
2023-04-01T08:45:44.243Z,992.67
2023-04-01T08:46:44.231Z,992.73
2023-04-01T08:47:44.256Z,992.71
2023-04-01T08:48:44.213Z,992.71
2023-04-01T08:49:44.237Z,992.73
2023-04-01T08:50:44.155Z,992.76
2023-04-01T08:51:44.173Z,992.74
2023-04-01T08:52:44.140Z,992.69
2023-04-01T08:53:44.149Z,992.69
2023-04-01T08:54:44.171Z,992.65
2023-04-01T08:55:44.116Z,992.69
2023-04-01T08:56:44.086Z,992.69
2023-04-01T08:57:44.077Z,992.66
2023-04-01T08:58:44.079Z,992.63
2023-04-01T08:59:44.113Z,992.62
2023-04-01T09:00:44.069Z,992.64
2023-04-01T09:01:44.048Z,992.66
2023-04-01T09:02:44.184Z,992.62
2023-04-01T09:03:44.211Z,992.60
2023-04-01T09:04:44.053Z,992.60
2023-04-01T09:05:44.013Z,992.61
2023-04-01T09:06:43.975Z,992.63
2023-04-01T09:07:44.020Z,992.64
2023-04-01T09:08:43.964Z,992.65
2023-04-01T09:09:44.012Z,992.66
2023-04-01T09:10:43.952Z,992.62
2023-04-01T09:11:43.930Z,992.68
2023-04-01T09:12:43.918Z,992.69
2023-04-01T09:13:43.897Z,992.62
2023-04-01T09:14:43.938Z,992.66
2023-04-01T09:15:43.967Z,992.65
2023-04-01T09:16:43.869Z,992.68
2023-04-01T09:17:43.910Z,992.67
2023-04-01T09:18:43.851Z,992.70
2023-04-01T09:19:43.871Z,992.71
2023-04-01T09:20:43.820Z,992.72
2023-04-01T09:21:43.802Z,992.74
2023-04-01T09:22:43.813Z,992.74
2023-04-01T09:23:43.791Z,992.79
2023-04-01T09:24:43.832Z,992.81
2023-04-01T09:25:43.775Z,992.81
2023-04-01T09:26:43.761Z,992.86
2023-04-01T09:27:43.743Z,992.86
2023-04-01T09:28:43.722Z,992.90
2023-04-01T09:29:43.756Z,992.87
2023-04-01T09:30:43.689Z,992.89
2023-04-01T09:31:43.842Z,992.88
2023-04-01T09:32:43.744Z,992.91
2023-04-01T09:33:43.684Z,992.93
2023-04-01T09:34:43.705Z,992.89
2023-04-01T09:35:43.694Z,992.89
2023-04-01T09:36:43.646Z,992.92
2023-04-01T09:37:43.620Z,992.93
2023-04-01T09:38:43.625Z,992.95
2023-04-01T09:39:43.677Z,992.95
2023-04-01T09:40:43.575Z,992.91
2023-04-01T09:41:43.568Z,992.91
2023-04-01T09:42:43.580Z,992.92
2023-04-01T09:43:43.576Z,992.92
2023-04-01T09:44:43.616Z,992.96
2023-04-01T09:45:43.533Z,992.92
2023-04-01T09:46:43.704Z,992.93
2023-04-01T09:47:43.549Z,992.95
2023-04-01T09:48:43.523Z,992.96
2023-04-01T09:49:43.548Z,992.94
2023-04-01T09:50:43.497Z,992.93
2023-04-01T09:51:43.476Z,992.99
2023-04-01T09:52:45.335Z,992.97
2023-04-01T09:53:43.462Z,992.98
2023-04-01T09:54:43.496Z,993.01
2023-04-01T09:55:43.445Z,992.99
2023-04-01T09:56:43.413Z,992.97
2023-04-01T09:57:43.392Z,993.01
2023-04-01T09:58:44.217Z,993.03
2023-04-01T09:59:43.426Z,992.99
2023-04-01T10:00:43.383Z,993.03
2023-04-01T10:01:43.399Z,993.03
2023-04-01T10:02:43.521Z,993.04
2023-04-01T10:03:43.346Z,993.03
2023-04-01T10:04:43.372Z,993.07
2023-04-01T10:05:43.375Z,993.09
2023-04-01T10:06:43.285Z,993.08
2023-04-01T10:07:43.294Z,993.09
2023-04-01T10:08:43.304Z,993.10
2023-04-01T10:09:43.341Z,993.08
2023-04-01T10:10:43.251Z,993.08
2023-04-01T10:11:43.239Z,993.07
2023-04-01T10:12:43.214Z,993.08
2023-04-01T10:13:43.224Z,993.07
2023-04-01T10:14:43.191Z,993.07
2023-04-01T10:15:43.251Z,993.10
2023-04-01T10:16:43.255Z,993.10
2023-04-01T10:17:43.186Z,993.09
2023-04-01T10:18:43.168Z,993.12
2023-04-01T10:19:43.157Z,993.12
2023-04-01T10:20:43.208Z,993.15
2023-04-01T10:21:43.140Z,993.09
2023-04-01T10:22:43.119Z,993.12
2023-04-01T10:23:43.097Z,993.11
2023-04-01T10:24:43.088Z,993.13
2023-04-01T10:25:43.134Z,993.11
2023-04-01T10:26:43.069Z,993.15
2023-04-01T10:27:43.070Z,993.12
2023-04-01T10:28:43.062Z,993.15
2023-04-01T10:29:43.031Z,993.13
2023-04-01T10:30:43.069Z,993.08
2023-04-01T10:31:43.105Z,993.12
2023-04-01T10:32:43.622Z,993.06
2023-04-01T10:33:42.999Z,993.12
2023-04-01T10:34:42.988Z,993.10
2023-04-01T10:35:43.008Z,993.13
2023-04-01T10:36:42.968Z,993.08
2023-04-01T10:37:42.932Z,993.09
2023-04-01T10:38:42.973Z,993.06
2023-04-01T10:39:42.908Z,993.08
2023-04-01T10:40:42.962Z,993.10
2023-04-01T10:41:42.890Z,993.09
2023-04-01T10:42:42.861Z,993.03
2023-04-01T10:43:42.870Z,993.05
2023-04-01T10:44:42.869Z,993.05
2023-04-01T10:45:42.934Z,992.99
2023-04-01T10:46:42.829Z,993.04
2023-04-01T10:47:42.878Z,992.98
2023-04-01T10:48:42.812Z,993.03
2023-04-01T10:49:42.790Z,992.97
2023-04-01T10:50:42.825Z,993.02
2023-04-01T10:51:42.765Z,993.05
2023-04-01T10:52:42.789Z,992.99
2023-04-01T10:53:42.757Z,993.05
2023-04-01T10:54:42.738Z,993.03
2023-04-01T10:55:42.764Z,992.99
2023-04-01T10:56:42.703Z,993.01
2023-04-01T10:57:42.707Z,993.03
2023-04-01T10:58:42.704Z,993.04
2023-04-01T10:59:42.686Z,993.06
2023-04-01T11:00:42.728Z,993.03
2023-04-01T11:01:42.694Z,993.04
2023-04-01T11:02:42.781Z,993.08
2023-04-01T11:03:42.655Z,993.03
2023-04-01T11:04:42.644Z,993.05
2023-04-01T11:05:42.669Z,993.05
2023-04-01T11:06:42.613Z,993.12
2023-04-01T11:07:43.197Z,993.11
2023-04-01T11:08:42.578Z,993.14
2023-04-01T11:09:42.567Z,993.11
2023-04-01T11:10:42.602Z,993.14
2023-04-01T11:11:42.537Z,993.16
2023-04-01T11:12:42.524Z,993.15
2023-04-01T11:13:42.526Z,993.15
2023-04-01T11:14:42.546Z,993.15
2023-04-01T11:15:42.560Z,993.14
2023-04-01T11:16:42.509Z,993.16
2023-04-01T11:17:42.508Z,993.17
2023-04-01T11:18:42.466Z,993.14
2023-04-01T11:19:42.446Z,993.17
2023-04-01T11:20:42.491Z,993.12
2023-04-01T11:21:42.439Z,993.12
2023-04-01T11:22:42.413Z,993.18
2023-04-01T11:23:44.009Z,993.08
2023-04-01T11:24:42.391Z,993.11
2023-04-01T11:25:42.420Z,993.14
2023-04-01T11:26:42.395Z,993.09
2023-04-01T11:27:42.362Z,993.12
2023-04-01T11:28:42.344Z,993.08
2023-04-01T11:29:53.191Z,993.10
2023-04-01T11:30:43.367Z,993.10
2023-04-01T11:31:42.326Z,993.07
2023-04-01T11:32:42.363Z,993.09
2023-04-01T11:33:42.288Z,993.10
2023-04-01T11:34:42.279Z,993.11
2023-04-01T11:35:42.307Z,993.10
2023-04-01T11:36:42.282Z,993.09
2023-04-01T11:37:42.244Z,993.11
2023-04-01T11:38:42.249Z,993.14
2023-04-01T11:39:42.254Z,993.12
2023-04-01T11:40:42.290Z,993.14
2023-04-01T11:41:42.196Z,993.15
2023-04-01T11:42:42.174Z,993.12
2023-04-01T11:43:42.156Z,993.13
2023-04-01T11:44:42.153Z,993.12
2023-04-01T11:45:42.227Z,993.16
2023-04-01T11:46:42.275Z,993.17
2023-04-01T11:47:42.168Z,993.16
2023-04-01T11:48:43.369Z,993.18
2023-04-01T11:49:42.132Z,993.16
2023-04-01T11:50:42.126Z,993.16
2023-04-01T11:51:42.079Z,993.19
2023-04-01T11:52:42.067Z,993.20
2023-04-01T11:53:42.068Z,993.21
2023-04-01T11:54:42.159Z,993.23
2023-04-01T11:55:42.086Z,993.22
2023-04-01T11:56:42.035Z,993.27
2023-04-01T11:57:42.006Z,993.27
2023-04-01T11:58:42.024Z,993.29
2023-04-01T11:59:42.014Z,993.28
2023-04-01T12:00:42.038Z,993.29
2023-04-01T12:01:41.977Z,993.26
2023-04-01T12:02:42.092Z,993.28
2023-04-01T12:03:42.052Z,993.30
2023-04-01T12:04:41.950Z,993.30
2023-04-01T12:05:41.996Z,993.29
2023-04-01T12:06:41.925Z,993.26
2023-04-01T12:07:41.963Z,993.29
2023-04-01T12:08:41.898Z,993.33
2023-04-01T12:09:41.869Z,993.27
2023-04-01T12:10:41.921Z,993.33
2023-04-01T12:11:41.863Z,993.36
2023-04-01T12:12:50.748Z,993.34
2023-04-01T12:13:42.860Z,993.37
2023-04-01T12:14:41.838Z,993.39
2023-04-01T12:15:41.847Z,993.33
2023-04-01T12:16:41.836Z,993.38
2023-04-01T12:17:41.834Z,993.38
2023-04-01T12:18:41.795Z,993.41
2023-04-01T12:19:41.817Z,993.43
2023-04-01T12:20:41.808Z,993.44
2023-04-01T12:21:41.778Z,993.39
2023-04-01T12:22:41.772Z,993.42
2023-04-01T12:23:41.712Z,993.38
2023-04-01T12:24:41.710Z,993.37
2023-04-01T12:25:41.743Z,993.40
2023-04-01T12:26:41.690Z,993.31
2023-04-01T12:27:41.680Z,993.33
2023-04-01T12:28:41.660Z,993.38
2023-04-01T12:29:41.639Z,993.37
2023-04-01T12:30:41.716Z,993.40